createdAt,value
2022-11-28T00:01:37.344Z,125.53
2022-11-28T00:04:08.070Z,115.68
2022-11-28T00:06:38.483Z,126.00
2022-11-28T00:09:07.055Z,120.43
2022-11-28T00:11:34.943Z,113.35
2022-11-28T00:14:02.850Z,114.65
2022-11-28T00:16:31.424Z,114.65
2022-11-28T00:19:01.231Z,118.32
2022-11-28T00:21:31.326Z,116.68
2022-11-28T00:24:01.244Z,124.00
2022-11-28T00:26:31.644Z,125.78
2022-11-28T00:29:00.597Z,119.82
2022-11-28T00:31:30.954Z,123.45
2022-11-28T00:33:59.085Z,129.73
2022-11-28T00:36:27.096Z,124.20
2022-11-28T00:38:56.511Z,122.60
2022-11-28T00:41:26.488Z,125.63
2022-11-28T00:43:54.740Z,118.80
2022-11-28T00:46:23.942Z,125.28
2022-11-28T00:48:51.994Z,113.05
2022-11-28T00:51:22.620Z,114.97
2022-11-28T00:53:52.286Z,116.97
2022-11-28T00:56:23.616Z,117.78
2022-11-28T00:58:51.734Z,116.32
2022-11-28T01:01:23.389Z,121.72
2022-11-28T01:03:52.770Z,116.78
2022-11-28T01:06:24.949Z,123.03
2022-11-28T01:08:53.513Z,107.63
2022-11-28T01:11:23.398Z,108.95
2022-11-28T01:13:51.775Z,112.25
2022-11-28T01:16:19.956Z,114.45
2022-11-28T01:18:47.904Z,123.88
2022-11-28T01:21:15.822Z,125.75
2022-11-28T01:23:44.399Z,124.30
2022-11-28T01:26:17.245Z,115.82
2022-11-28T01:28:47.053Z,119.40
2022-11-28T01:31:16.768Z,124.57
2022-11-28T01:33:44.942Z,117.68
2022-11-28T01:36:14.022Z,115.32
2022-11-28T01:38:42.635Z,119.20
2022-11-28T01:41:11.067Z,110.53
2022-11-28T01:43:39.363Z,110.05
2022-11-28T01:46:08.841Z,108.95
2022-11-28T01:48:43.520Z,113.40
2022-11-28T01:51:11.718Z,112.32
2022-11-28T01:53:44.014Z,114.85
2022-11-28T01:56:18.676Z,118.20
2022-11-28T01:58:50.627Z,115.38
2022-11-28T02:01:20.379Z,116.03
2022-11-28T02:03:50.751Z,118.68
2022-11-28T02:06:21.848Z,117.13
2022-11-28T02:08:52.068Z,118.78
2022-11-28T02:11:45.003Z,117.38
2022-11-28T02:14:21.840Z,114.40
2022-11-28T02:17:05.771Z,113.43
2022-11-28T02:20:10.142Z,115.90
2022-11-28T02:22:42.777Z,112.45
2022-11-28T02:25:44.201Z,112.13
2022-11-28T02:28:39.416Z,119.55
2022-11-28T02:31:19.661Z,120.10
2022-11-28T02:33:53.240Z,113.40
2022-11-28T02:36:29.736Z,106.60
2022-11-28T02:39:10.640Z,110.40
2022-11-28T02:41:46.045Z,117.00
2022-11-28T02:44:18.044Z,115.78
2022-11-28T02:46:54.354Z,107.82
2022-11-28T02:49:30.674Z,111.85
2022-11-28T02:52:02.968Z,112.82
2022-11-28T02:54:32.692Z,113.28
2022-11-28T02:57:00.661Z,109.90
2022-11-28T02:59:46.640Z,108.03
2022-11-28T03:02:20.095Z,107.82
2022-11-28T03:04:57.987Z,112.32
2022-11-28T03:07:38.097Z,118.63
2022-11-28T03:10:15.780Z,115.40
2022-11-28T03:12:57.712Z,118.10
2022-11-28T03:15:33.280Z,118.85
2022-11-28T03:18:10.591Z,112.35
2022-11-28T03:20:47.545Z,111.18
2022-11-28T03:23:18.384Z,113.95
2022-11-28T03:25:56.605Z,113.38
2022-11-28T03:28:29.961Z,110.65
2022-11-28T03:31:02.093Z,112.75
2022-11-28T03:33:34.535Z,110.60
2022-11-28T03:36:07.951Z,113.47
2022-11-28T03:38:39.722Z,108.30
2022-11-28T03:41:11.579Z,111.40
2022-11-28T03:43:44.217Z,108.28
2022-11-28T03:46:16.936Z,115.43
2022-11-28T03:48:48.334Z,115.88
2022-11-28T03:51:20.432Z,111.20
2022-11-28T03:53:53.765Z,106.10
2022-11-28T03:56:26.392Z,109.38
2022-11-28T03:59:00.100Z,115.75
2022-11-28T04:01:33.756Z,104.20
2022-11-28T04:04:12.827Z,108.22
2022-11-28T04:06:54.301Z,107.60
2022-11-28T04:09:42.877Z,108.97
2022-11-28T04:12:18.702Z,112.45
2022-11-28T04:14:50.497Z,112.15
2022-11-28T04:17:27.107Z,111.22
2022-11-28T04:20:00.501Z,106.93
2022-11-28T04:22:33.127Z,99.95
2022-11-28T04:25:06.005Z,102.53
2022-11-28T04:27:38.785Z,102.85
2022-11-28T04:30:10.137Z,98.85
2022-11-28T04:32:43.412Z,108.40
2022-11-28T04:35:15.818Z,113.43
2022-11-28T04:37:48.653Z,126.47
2022-11-28T04:40:18.414Z,129.25
2022-11-28T04:42:52.791Z,135.43
2022-11-28T04:45:26.571Z,136.63
2022-11-28T04:47:55.181Z,127.72
2022-11-28T04:50:26.490Z,126.97
2022-11-28T04:53:00.499Z,129.60
2022-11-28T04:55:33.667Z,129.52
2022-11-28T04:58:09.967Z,129.35
2022-11-28T05:00:39.110Z,132.65
2022-11-28T05:03:07.681Z,134.82
2022-11-28T05:05:45.371Z,134.75
2022-11-28T05:08:14.712Z,133.00
2022-11-28T05:10:43.543Z,130.15
2022-11-28T05:13:11.691Z,121.78
2022-11-28T05:15:39.561Z,115.22
2022-11-28T05:18:07.735Z,153.90
2022-11-28T05:20:36.507Z,120.65
2022-11-28T05:23:04.370Z,119.60
2022-11-28T05:25:33.684Z,127.85
2022-11-28T05:28:01.720Z,120.50
2022-11-28T05:30:29.683Z,122.53
2022-11-28T05:33:00.818Z,121.47
2022-11-28T05:35:29.023Z,121.07
2022-11-28T05:37:56.880Z,116.95
2022-11-28T05:40:24.971Z,119.93
2022-11-28T05:42:54.436Z,121.40
2022-11-28T05:45:22.369Z,112.22
2022-11-28T05:47:50.405Z,111.28
2022-11-28T05:50:18.443Z,121.65
2022-11-28T05:52:46.717Z,27.45
2022-11-28T05:55:14.924Z,13.98
2022-11-28T05:57:42.848Z,12.57
2022-11-28T06:00:14.535Z,14.15
2022-11-28T06:02:44.640Z,9.63
2022-11-28T06:05:35.139Z,9.90
2022-11-28T06:08:00.691Z,9.85
2022-11-28T06:10:29.070Z,11.50
2022-11-28T06:12:56.982Z,9.85
2022-11-28T06:15:26.485Z,11.57
2022-11-28T06:17:54.385Z,10.95
2022-11-28T06:20:22.413Z,12.05
2022-11-28T06:22:50.486Z,12.82
2022-11-28T06:25:21.325Z,11.45
2022-11-28T06:27:49.186Z,11.00
2022-11-28T06:30:17.524Z,11.85
2022-11-28T06:32:47.125Z,11.80
2022-11-28T06:35:15.167Z,10.98
2022-11-28T06:37:43.316Z,12.68
2022-11-28T06:40:11.490Z,11.77
2022-11-28T06:42:39.940Z,11.35
2022-11-28T06:45:09.317Z,12.52
2022-11-28T06:47:37.244Z,12.07
2022-11-28T06:50:09.680Z,13.65
2022-11-28T06:52:37.633Z,11.02
2022-11-28T06:55:06.122Z,10.38
2022-11-28T06:57:34.496Z,11.50
2022-11-28T07:00:02.412Z,10.15
2022-11-28T07:02:30.387Z,13.23
2022-11-28T07:04:58.674Z,10.45
2022-11-28T07:07:28.137Z,10.32
2022-11-28T07:09:56.099Z,9.60
2022-11-28T07:12:24.108Z,13.00
2022-11-28T07:14:52.036Z,13.30
2022-11-28T07:17:19.942Z,11.98
2022-11-28T07:19:53.463Z,11.60
2022-11-28T07:22:22.850Z,11.48
2022-11-28T07:24:52.303Z,11.68
2022-11-28T07:27:20.494Z,10.57
2022-11-28T07:29:51.019Z,11.02
2022-11-28T07:32:18.976Z,10.82
2022-11-28T07:34:50.249Z,11.20
2022-11-28T07:37:18.424Z,11.93
2022-11-28T07:39:48.900Z,11.40
2022-11-28T07:42:21.176Z,9.68
2022-11-28T07:44:49.209Z,9.77
2022-11-28T07:47:17.218Z,8.60
2022-11-28T07:49:46.382Z,10.05
2022-11-28T07:52:14.476Z,8.75
2022-11-28T07:54:42.802Z,11.15
2022-11-28T07:57:12.321Z,9.00
2022-11-28T07:59:42.850Z,9.02
2022-11-28T08:02:11.560Z,8.52
2022-11-28T08:04:48.382Z,9.68
2022-11-28T08:07:18.725Z,8.95
2022-11-28T08:09:49.581Z,10.63
2022-11-28T08:12:17.537Z,9.43
2022-11-28T08:14:46.836Z,11.77
2022-11-28T08:17:14.851Z,10.43
2022-11-28T08:19:43.050Z,9.27
2022-11-28T08:22:14.323Z,10.90
2022-11-28T08:24:42.583Z,11.52
2022-11-28T08:27:10.657Z,11.45
2022-11-28T08:29:38.646Z,21.95
2022-11-28T08:32:08.021Z,20.25
2022-11-28T08:34:36.041Z,15.55
2022-11-28T08:37:03.988Z,13.43
2022-11-28T08:39:32.675Z,10.18
2022-11-28T08:42:00.975Z,11.45
2022-11-28T08:44:30.751Z,13.60
2022-11-28T08:46:58.805Z,11.32
2022-11-28T08:49:28.277Z,9.02
2022-11-28T08:51:56.318Z,10.18
2022-11-28T08:54:24.338Z,10.35
2022-11-28T08:56:52.357Z,10.73
2022-11-28T08:59:20.426Z,9.52
2022-11-28T09:01:48.525Z,11.18
2022-11-28T09:04:16.892Z,9.95
2022-11-28T09:06:46.345Z,10.13
2022-11-28T09:09:14.316Z,8.68
2022-11-28T09:11:42.493Z,9.75
2022-11-28T09:14:12.930Z,8.30
2022-11-28T09:16:41.746Z,8.88
2022-11-28T09:19:10.812Z,15.13
2022-11-28T09:21:40.586Z,11.10
2022-11-28T09:24:10.481Z,12.43
2022-11-28T09:26:38.418Z,9.07
2022-11-28T09:29:06.295Z,12.93
2022-11-28T09:31:34.354Z,10.40
2022-11-28T09:34:03.595Z,10.38
2022-11-28T09:36:33.549Z,12.70
2022-11-28T09:39:02.457Z,10.20
2022-11-28T09:41:52.152Z,12.43
2022-11-28T09:44:24.047Z,13.27
2022-11-28T09:46:55.844Z,10.23
2022-11-28T09:49:39.926Z,11.98
2022-11-28T09:52:18.701Z,9.75
2022-11-28T09:54:53.751Z,9.15
2022-11-28T09:57:33.295Z,8.70
2022-11-28T10:00:01.892Z,8.98
2022-11-28T10:02:38.903Z,9.52
2022-11-28T10:05:19.703Z,9.15
2022-11-28T10:08:00.104Z,9.43
2022-11-28T10:10:36.714Z,9.90
2022-11-28T10:13:18.117Z,11.30
2022-11-28T10:16:00.051Z,9.18
2022-11-28T10:18:39.258Z,9.35
2022-11-28T10:21:22.541Z,10.82
2022-11-28T10:23:56.341Z,7.95
2022-11-28T10:26:30.501Z,12.15
2022-11-28T10:29:04.064Z,8.77
2022-11-28T10:31:36.820Z,7.60
2022-11-28T10:34:11.286Z,7.65
2022-11-28T10:36:52.180Z,7.07
2022-11-28T10:39:20.381Z,9.65
2022-11-28T10:42:11.778Z,9.95
2022-11-28T10:44:56.157Z,9.15
2022-11-28T10:47:36.497Z,9.75
2022-11-28T10:50:08.257Z,8.60
2022-11-28T10:52:45.563Z,8.73
2022-11-28T10:55:27.854Z,9.02
2022-11-28T10:58:05.582Z,9.18
2022-11-28T11:00:36.519Z,7.30
2022-11-28T11:03:08.027Z,8.23
2022-11-28T11:05:38.320Z,7.22
2022-11-28T11:08:16.311Z,7.40
2022-11-28T11:10:49.292Z,9.57
2022-11-28T11:13:21.397Z,8.40
2022-11-28T11:15:57.588Z,8.23
2022-11-28T11:18:27.649Z,10.52
2022-11-28T11:21:09.460Z,11.68
2022-11-28T11:23:38.529Z,10.50
2022-11-28T11:26:10.436Z,9.52
2022-11-28T11:28:45.135Z,10.27
2022-11-28T11:31:27.133Z,8.52
2022-11-28T11:34:03.822Z,10.40
2022-11-28T11:36:34.239Z,10.60
2022-11-28T11:39:25.496Z,11.70
2022-11-28T11:42:11.726Z,14.45
2022-11-28T11:44:39.757Z,8.93
2022-11-28T11:47:10.539Z,13.80
2022-11-28T11:49:40.622Z,13.93
2022-11-28T11:52:18.851Z,18.80
2022-11-28T11:54:58.005Z,10.93
2022-11-28T11:57:33.444Z,11.40
2022-11-28T12:00:07.085Z,14.73
2022-11-28T12:02:42.326Z,13.27
2022-11-28T12:05:13.961Z,18.20
2022-11-28T12:07:53.484Z,20.00
2022-11-28T12:10:26.690Z,18.42
2022-11-28T12:12:55.592Z,19.52
2022-11-28T12:15:35.023Z,12.90
2022-11-28T12:18:20.220Z,12.68
2022-11-28T12:21:13.269Z,11.70
2022-11-28T12:23:54.365Z,17.13
2022-11-28T12:26:27.122Z,13.02
2022-11-28T12:29:11.722Z,13.57
2022-11-28T12:31:47.744Z,15.18
2022-11-28T12:34:28.596Z,11.95
2022-11-28T12:37:11.000Z,10.68
2022-11-28T12:39:52.828Z,11.13
2022-11-28T12:42:36.550Z,12.35
2022-11-28T12:45:25.676Z,10.25
2022-11-28T12:48:03.513Z,10.18
2022-11-28T12:50:37.796Z,8.93
2022-11-28T12:53:23.513Z,9.77
2022-11-28T12:56:00.181Z,8.27
2022-11-28T12:58:33.977Z,8.90
2022-11-28T13:01:29.530Z,9.32
2022-11-28T13:04:07.206Z,7.63
2022-11-28T13:06:50.231Z,9.68
2022-11-28T13:09:33.753Z,11.38
2022-11-28T13:12:24.370Z,9.32
2022-11-28T13:14:57.284Z,11.88
2022-11-28T13:17:38.448Z,9.02
2022-11-28T13:20:18.908Z,8.32
2022-11-28T13:23:12.769Z,9.40
2022-11-28T13:25:51.843Z,9.80
2022-11-28T13:28:26.476Z,9.52
2022-11-28T13:30:58.492Z,11.15
2022-11-28T13:33:45.806Z,12.93
2022-11-28T13:39:19.376Z,11.93
2022-11-28T13:42:16.184Z,12.73
2022-11-28T13:44:49.611Z,12.30
2022-11-28T13:47:29.696Z,10.38
2022-11-28T13:50:36.225Z,8.63
2022-11-28T13:53:21.273Z,12.00
2022-11-28T13:55:52.376Z,9.57
2022-11-28T13:58:24.567Z,11.30
2022-11-28T14:01:06.603Z,10.18
2022-11-28T14:03:36.869Z,12.20
2022-11-28T14:06:08.338Z,14.60
2022-11-28T14:08:39.181Z,16.00
2022-11-28T14:11:35.630Z,17.20
2022-11-28T14:14:42.668Z,22.77
2022-11-28T14:17:33.969Z,18.05
2022-11-28T14:20:16.547Z,14.30
2022-11-28T14:22:56.204Z,13.82
2022-11-28T14:25:28.646Z,13.35
2022-11-28T14:28:01.537Z,11.50
2022-11-28T14:30:35.092Z,11.80
2022-11-28T14:33:06.951Z,12.27
2022-11-28T14:36:16.846Z,11.68
2022-11-28T14:38:46.852Z,11.77
2022-11-28T14:41:15.725Z,13.82
2022-11-28T14:43:46.651Z,12.55
2022-11-28T14:46:21.353Z,8.93
2022-11-28T14:49:17.716Z,9.82
2022-11-28T14:55:18.800Z,10.50
2022-11-28T14:57:57.692Z,10.95
2022-11-28T15:00:32.586Z,10.93
2022-11-28T15:03:28.163Z,11.85
2022-11-28T15:06:02.411Z,12.23
2022-11-28T15:08:40.274Z,11.30
2022-11-28T15:11:26.777Z,11.73
2022-11-28T15:14:11.629Z,11.40
2022-11-28T15:16:50.444Z,10.43
2022-11-28T15:19:25.539Z,11.27
2022-11-28T15:21:54.700Z,9.63
2022-11-28T15:24:25.675Z,10.70
2022-11-28T15:26:57.331Z,21.98
2022-11-28T15:29:30.850Z,10.95
2022-11-28T15:32:01.245Z,9.25
2022-11-28T15:34:31.698Z,8.60
2022-11-28T15:37:01.783Z,9.38
2022-11-28T15:39:34.992Z,9.70
2022-11-28T15:42:08.183Z,12.00
2022-11-28T15:44:39.203Z,11.32
2022-11-28T15:47:19.349Z,11.68
2022-11-28T15:49:47.898Z,13.32
2022-11-28T15:52:20.076Z,11.77
2022-11-28T15:54:51.781Z,11.45
2022-11-28T15:57:25.170Z,11.13
2022-11-28T16:00:01.333Z,11.77
2022-11-28T16:02:35.592Z,10.73
2022-11-28T16:05:08.879Z,11.52
2022-11-28T16:07:42.523Z,12.05
2022-11-28T16:10:24.840Z,10.73
2022-11-28T16:13:00.933Z,14.65
2022-11-28T16:15:32.329Z,12.77
2022-11-28T16:18:02.274Z,11.65
2022-11-28T16:20:35.525Z,11.98
2022-11-28T16:23:12.506Z,14.63
2022-11-28T16:25:40.545Z,12.65
2022-11-28T16:28:30.705Z,15.55
2022-11-28T16:30:59.071Z,12.73
2022-11-28T16:33:42.410Z,17.52
2022-11-28T16:36:22.001Z,12.00
2022-11-28T16:38:52.124Z,11.60
2022-11-28T16:41:23.808Z,12.15
2022-11-28T16:43:56.544Z,13.30
2022-11-28T16:46:28.206Z,15.18
2022-11-28T16:48:59.883Z,16.38
2022-11-28T16:51:34.162Z,17.17
2022-11-28T16:54:22.312Z,20.58
2022-11-28T16:56:50.181Z,26.27
2022-11-28T16:59:20.748Z,30.80
2022-11-28T17:01:52.969Z,23.20
2022-11-28T17:04:24.869Z,20.05
2022-11-28T17:06:53.812Z,22.38
2022-11-28T17:09:21.896Z,20.30
2022-11-28T17:11:55.923Z,20.00
2022-11-28T17:14:24.084Z,16.77
2022-11-28T17:16:55.981Z,17.17
2022-11-28T17:19:30.221Z,19.15
2022-11-28T17:22:01.070Z,17.45
2022-11-28T17:24:34.876Z,17.52
2022-11-28T17:30:01.100Z,20.45
2022-11-28T17:32:29.342Z,26.10
2022-11-28T17:34:59.962Z,20.95
2022-11-28T17:37:28.045Z,16.90
2022-11-28T17:40:13.836Z,16.42
2022-11-28T17:42:41.884Z,18.15
2022-11-28T17:45:16.828Z,17.73
2022-11-28T17:47:44.826Z,18.50
2022-11-28T17:50:14.765Z,14.57
2022-11-28T17:52:54.031Z,16.75
2022-11-28T17:55:22.443Z,18.55
2022-11-28T17:57:50.413Z,16.52
2022-11-28T18:00:19.020Z,16.67
2022-11-28T18:02:47.051Z,16.95
2022-11-28T18:05:16.528Z,15.93
2022-11-28T18:07:44.839Z,15.25
2022-11-28T18:10:13.127Z,21.02
2022-11-28T18:12:42.661Z,16.63
2022-11-28T18:15:11.405Z,16.60
2022-11-28T18:17:39.732Z,17.02
2022-11-28T18:20:08.989Z,16.88
2022-11-28T18:22:38.260Z,16.58
2022-11-28T18:25:08.071Z,15.40
2022-11-28T18:27:36.104Z,14.23
2022-11-28T18:30:06.632Z,14.65
2022-11-28T18:32:34.511Z,16.35
2022-11-28T18:35:02.483Z,16.30
2022-11-28T18:37:31.322Z,19.27
2022-11-28T18:40:02.300Z,16.60
2022-11-28T18:42:33.156Z,19.17
2022-11-28T18:45:01.321Z,17.10
2022-11-28T18:47:29.641Z,20.23
2022-11-28T18:49:57.540Z,28.77
2022-11-28T18:52:25.792Z,28.35
2022-11-28T18:54:53.644Z,24.45
2022-11-28T18:57:23.265Z,22.85
2022-11-28T18:59:54.924Z,28.77
2022-11-28T19:02:23.414Z,31.17
2022-11-28T19:04:51.746Z,28.50
2022-11-28T19:07:19.865Z,26.90
2022-11-28T19:09:48.192Z,26.48
2022-11-28T19:12:16.160Z,25.05
2022-11-28T19:14:45.697Z,20.55
2022-11-28T19:17:13.822Z,19.27
2022-11-28T19:19:47.324Z,18.13
2022-11-28T19:22:17.161Z,17.23
2022-11-28T19:24:45.163Z,15.80
2022-11-28T19:27:14.701Z,15.27
2022-11-28T19:29:43.259Z,16.02
2022-11-28T19:32:14.383Z,15.65
2022-11-28T19:34:42.370Z,15.10
2022-11-28T19:37:10.323Z,16.60
2022-11-28T19:39:38.517Z,17.33
2022-11-28T19:42:07.087Z,16.70
2022-11-28T19:44:35.072Z,16.00
2022-11-28T19:47:03.241Z,16.70
2022-11-28T19:49:32.687Z,16.02
2022-11-28T19:52:00.722Z,16.88
2022-11-28T19:54:31.278Z,16.10
2022-11-28T19:56:59.301Z,16.60
2022-11-28T19:59:27.675Z,27.17
2022-11-28T20:01:55.636Z,37.05
2022-11-28T20:04:23.769Z,28.83
2022-11-28T20:06:53.283Z,26.02
2022-11-28T20:09:21.249Z,18.85
2022-11-28T20:11:49.678Z,16.25
2022-11-28T20:14:19.401Z,16.67
2022-11-28T20:16:48.380Z,15.38
2022-11-28T20:19:17.773Z,15.85
2022-11-28T20:21:46.175Z,14.77
2022-11-28T20:24:15.795Z,14.13
2022-11-28T20:26:45.331Z,15.05
2022-11-28T20:29:18.393Z,14.77
2022-11-28T20:31:48.445Z,14.00
2022-11-28T20:34:17.720Z,14.15
2022-11-28T20:36:46.034Z,15.57
2022-11-28T20:39:15.355Z,18.73
2022-11-28T20:41:43.489Z,17.60
2022-11-28T20:44:11.721Z,19.45
2022-11-28T20:46:41.012Z,18.52
2022-11-28T20:49:08.909Z,18.73
2022-11-28T20:51:37.126Z,19.45
2022-11-28T20:54:06.449Z,18.98
2022-11-28T20:57:05.215Z,17.52
2022-11-28T20:59:27.336Z,18.67
2022-11-28T21:01:55.406Z,16.63
2022-11-28T21:04:23.356Z,20.13
2022-11-28T21:06:51.472Z,18.70
2022-11-28T21:09:20.557Z,16.58
2022-11-28T21:11:57.384Z,16.40
2022-11-28T21:14:26.396Z,18.88
2022-11-28T21:16:54.402Z,19.98
2022-11-28T21:19:22.463Z,18.17
2022-11-28T21:21:51.870Z,17.60
2022-11-28T21:24:19.848Z,18.25
2022-11-28T21:26:53.429Z,18.08
2022-11-28T21:29:21.860Z,19.85
2022-11-28T21:31:50.129Z,18.92
2022-11-28T21:34:19.494Z,18.30
2022-11-28T21:36:47.942Z,18.45
2022-11-28T21:39:19.929Z,16.45
2022-11-28T21:41:51.087Z,20.05
2022-11-28T21:44:19.186Z,20.38
2022-11-28T21:46:48.024Z,18.42
2022-11-28T21:49:16.003Z,18.38
2022-11-28T21:51:43.878Z,18.83
2022-11-28T21:54:12.260Z,17.45
2022-11-28T21:56:40.467Z,17.60
2022-11-28T21:59:10.016Z,15.93
2022-11-28T22:01:37.974Z,16.35
2022-11-28T22:04:06.488Z,14.73
2022-11-28T22:06:34.985Z,14.95
2022-11-28T22:09:09.175Z,17.27
2022-11-28T22:11:38.295Z,17.05
2022-11-28T22:14:06.238Z,16.65
2022-11-28T22:16:35.575Z,16.98
2022-11-28T22:19:04.049Z,18.20
2022-11-28T22:24:19.943Z,17.60
2022-11-28T22:26:47.868Z,16.02
2022-11-28T22:29:16.088Z,19.58
2022-11-28T22:31:45.629Z,18.17
2022-11-28T22:34:13.605Z,17.15
2022-11-28T22:36:41.684Z,16.48
2022-11-28T22:39:11.415Z,18.67
2022-11-28T22:41:39.534Z,16.17
2022-11-28T22:44:07.477Z,17.98
2022-11-28T22:46:35.356Z,16.65
2022-11-28T22:49:05.377Z,18.30
2022-11-28T22:51:33.289Z,18.48
2022-11-28T22:54:02.924Z,20.25
2022-11-28T22:56:32.101Z,16.00
2022-11-28T22:59:00.629Z,17.80
2022-11-28T23:01:30.630Z,17.38
2022-11-28T23:03:58.956Z,14.45
2022-11-28T23:06:30.635Z,16.55
2022-11-28T23:08:59.809Z,16.48
2022-11-28T23:11:29.353Z,17.83
2022-11-28T23:13:57.667Z,17.00
2022-11-28T23:16:27.529Z,17.60
2022-11-28T23:18:57.735Z,19.05
2022-11-28T23:21:27.548Z,19.92
2022-11-28T23:23:56.870Z,24.35
2022-11-28T23:26:26.904Z,18.45
2022-11-28T23:28:55.759Z,18.90
2022-11-28T23:31:26.943Z,16.83
2022-11-28T23:33:55.272Z,18.02
2022-11-28T23:36:25.956Z,17.67
2022-11-28T23:38:56.725Z,17.38
2022-11-28T23:41:25.622Z,18.15
2022-11-28T23:43:53.549Z,17.90
2022-11-28T23:46:25.042Z,17.92
2022-11-28T23:48:53.620Z,16.98
2022-11-28T23:51:24.173Z,17.85
2022-11-28T23:53:52.440Z,16.90
2022-11-28T23:56:23.878Z,16.50
2022-11-28T23:58:53.377Z,19.00
